Weather at Hickory Hollow Airport [CLOSED]

Public forecast

Using degrees Fahrenheit for public forecast. Weather courtesy of forecast.io.

Closest aviation weather report (METAR) to Hickory Hollow Airport

Closest report is Griffiss International Airport, 4.2 nm (7.7 km) WSW. Retrieved 2020/10/26 18:18 UTC (0 seconds ago):

KRME 261818Z 10006KT 3SM -RA BR OVC014 08/07 A3008 RMK AO2 RAB1758 P0001 T00780067

Closest aviation forecast (TAF) to Hickory Hollow Airport

Closest forecast is Griffiss International Airport, 4.2 nm (7.7 km) WSW. Retrieved 2020/10/26 18:42 UTC (0 seconds ago):

TAF KRME 261739Z 2618/2718 VRB04KT P6SM OVC015 TEMPO 2618/2621 2SM -RA BR OVC007 FM262100 28004KT 3SM -RA BR OVC005 FM270200 30006KT P6SM OVC012 FM270900 34004KT P6SM BKN025